createdAt,value
2023-09-07T00:01:04.510Z,23.27
2023-09-07T00:03:31.661Z,23.52
2023-09-07T00:05:58.552Z,20.23
2023-09-07T00:08:26.547Z,19.85
2023-09-07T00:10:53.671Z,19.30
2023-09-07T00:13:20.706Z,17.98
2023-09-07T00:15:47.651Z,19.40
2023-09-07T00:18:14.651Z,21.33
2023-09-07T00:20:41.662Z,22.40
2023-09-07T00:23:08.736Z,22.73
2023-09-07T00:25:35.693Z,25.13
2023-09-07T00:28:02.769Z,26.75
2023-09-07T00:30:29.739Z,30.50
2023-09-07T00:32:56.671Z,25.38
2023-09-07T00:35:23.523Z,25.77
2023-09-07T00:37:50.548Z,28.63
2023-09-07T00:40:17.609Z,26.63
2023-09-07T00:42:44.613Z,29.65
2023-09-07T00:45:11.498Z,29.10
2023-09-07T00:47:39.138Z,25.77
2023-09-07T00:50:07.524Z,27.38
2023-09-07T00:52:37.170Z,29.90
2023-09-07T00:55:05.803Z,31.38
2023-09-07T00:57:34.028Z,29.40
2023-09-07T01:00:01.678Z,28.23
2023-09-07T01:02:31.066Z,28.00
2023-09-07T01:04:58.757Z,28.20
2023-09-07T01:07:31.367Z,27.08
2023-09-07T01:10:03.833Z,31.35
2023-09-07T01:12:31.673Z,29.00
2023-09-07T01:14:59.512Z,31.98
2023-09-07T01:17:27.234Z,25.92
2023-09-07T01:19:55.359Z,28.27
2023-09-07T01:22:26.107Z,24.77
2023-09-07T01:24:54.075Z,29.08
2023-09-07T01:27:21.326Z,24.35
2023-09-07T01:29:48.287Z,27.98
2023-09-07T01:32:15.191Z,27.63
2023-09-07T01:34:42.444Z,30.30
2023-09-07T01:37:09.490Z,30.67
2023-09-07T01:39:38.030Z,31.60
2023-09-07T01:42:05.202Z,28.60
2023-09-07T01:44:32.132Z,30.83
2023-09-07T01:46:59.206Z,28.38
2023-09-07T01:49:27.994Z,30.65
2023-09-07T01:51:54.902Z,26.40
2023-09-07T01:54:23.047Z,28.42
2023-09-07T01:56:50.294Z,32.05
2023-09-07T01:59:17.371Z,31.05
2023-09-07T02:01:44.340Z,28.92
2023-09-07T02:04:11.403Z,28.33
2023-09-07T02:06:38.240Z,27.73
2023-09-07T02:09:05.627Z,32.00
2023-09-07T02:11:33.007Z,32.60
2023-09-07T02:14:00.033Z,32.33
2023-09-07T02:16:27.897Z,33.88
2023-09-07T02:19:04.809Z,30.50
2023-09-07T02:21:32.297Z,32.63
2023-09-07T02:23:59.789Z,31.02
2023-09-07T02:26:27.049Z,31.85
2023-09-07T02:28:53.994Z,35.00
2023-09-07T02:31:22.030Z,33.63
2023-09-07T02:33:49.119Z,34.33
2023-09-07T02:36:16.134Z,33.00
2023-09-07T02:38:43.087Z,33.92
2023-09-07T02:41:10.272Z,30.52
2023-09-07T02:43:37.190Z,35.15
2023-09-07T02:46:04.214Z,33.78
2023-09-07T02:48:31.350Z,32.97
2023-09-07T02:50:59.636Z,32.58
2023-09-07T02:53:27.078Z,34.53
2023-09-07T02:55:54.222Z,37.03
2023-09-07T02:58:21.169Z,32.95
2023-09-07T03:00:48.550Z,34.35
2023-09-07T03:03:18.694Z,33.53
2023-09-07T03:05:47.230Z,36.75
2023-09-07T03:08:15.305Z,35.05
2023-09-07T03:10:43.066Z,37.47
2023-09-07T03:13:10.483Z,40.13
2023-09-07T03:15:39.221Z,36.15
2023-09-07T03:18:09.291Z,36.75
2023-09-07T03:20:38.046Z,37.83
2023-09-07T03:23:05.048Z,42.50
2023-09-07T03:25:32.525Z,38.97
2023-09-07T03:27:59.535Z,35.55
2023-09-07T03:30:26.824Z,36.92
2023-09-07T03:32:55.411Z,44.08
2023-09-07T03:35:22.631Z,40.97
2023-09-07T03:37:49.579Z,44.55
2023-09-07T03:40:16.677Z,40.33
2023-09-07T03:42:44.674Z,42.03
2023-09-07T03:45:13.164Z,38.85
2023-09-07T03:47:40.555Z,40.38
2023-09-07T03:50:08.770Z,41.85
2023-09-07T03:52:35.874Z,40.92
2023-09-07T03:55:04.763Z,41.10
2023-09-07T03:57:31.683Z,40.88
2023-09-07T03:59:59.662Z,40.28
2023-09-07T04:02:26.921Z,40.25
2023-09-07T04:04:56.413Z,39.17
2023-09-07T04:07:23.347Z,38.53
2023-09-07T04:09:51.943Z,36.22
2023-09-07T04:12:18.934Z,42.10
2023-09-07T04:14:46.092Z,41.13
2023-09-07T04:17:13.550Z,43.70
2023-09-07T04:19:41.036Z,43.10
2023-09-07T04:22:08.096Z,46.03
2023-09-07T04:24:35.345Z,42.78
2023-09-07T04:27:03.585Z,44.47
2023-09-07T04:29:31.749Z,42.65
2023-09-07T04:31:59.020Z,42.50
2023-09-07T04:34:26.245Z,50.08
2023-09-07T04:36:55.071Z,44.33
2023-09-07T04:39:22.003Z,40.47
2023-09-07T04:41:49.219Z,42.05
2023-09-07T04:44:16.630Z,41.60
2023-09-07T04:46:43.717Z,47.25
2023-09-07T04:49:11.983Z,49.47
2023-09-07T04:51:38.894Z,42.53
2023-09-07T04:54:06.093Z,46.67
2023-09-07T04:56:33.060Z,47.40
2023-09-07T04:59:00.044Z,45.33
2023-09-07T05:01:27.700Z,42.83
2023-09-07T05:03:56.504Z,45.03
2023-09-07T05:06:27.552Z,42.50
2023-09-07T05:08:54.630Z,47.92
2023-09-07T05:11:21.481Z,47.63
2023-09-07T05:13:52.451Z,45.88
2023-09-07T05:16:19.579Z,43.30
2023-09-07T05:18:46.502Z,51.30
2023-09-07T05:21:15.324Z,47.70
2023-09-07T05:23:43.069Z,47.00
2023-09-07T05:26:10.115Z,47.35
2023-09-07T05:28:37.217Z,46.88
2023-09-07T05:31:04.975Z,50.90
2023-09-07T05:33:33.313Z,53.55
2023-09-07T05:36:00.635Z,48.58
2023-09-07T05:38:28.397Z,43.80
2023-09-07T05:40:56.857Z,47.65
2023-09-07T05:43:24.869Z,51.20
2023-09-07T05:45:51.972Z,53.88
2023-09-07T05:48:19.194Z,49.10
2023-09-07T05:50:47.445Z,51.47
2023-09-07T05:53:14.424Z,55.92
2023-09-07T05:55:41.509Z,51.28
2023-09-07T05:58:09.709Z,51.60
2023-09-07T06:00:41.658Z,50.92
2023-09-07T06:03:09.683Z,43.90
2023-09-07T06:05:37.994Z,48.20
2023-09-07T06:08:07.435Z,45.10
2023-09-07T06:10:35.166Z,48.22
2023-09-07T06:13:04.299Z,40.50
2023-09-07T06:15:32.520Z,45.97
2023-09-07T06:18:00.048Z,45.97
2023-09-07T06:20:27.386Z,39.20
2023-09-07T06:22:56.225Z,43.08
2023-09-07T06:25:23.755Z,34.75
2023-09-07T06:27:51.755Z,38.33
2023-09-07T06:30:19.488Z,34.47
2023-09-07T06:32:46.730Z,41.28
2023-09-07T06:35:14.592Z,40.20
2023-09-07T06:37:44.379Z,34.63
2023-09-07T06:40:14.637Z,39.67
2023-09-07T06:42:42.954Z,40.33
2023-09-07T06:45:14.799Z,39.58
2023-09-07T06:47:42.171Z,37.67
2023-09-07T06:50:11.186Z,40.95
2023-09-07T06:52:38.698Z,36.60
2023-09-07T06:55:06.593Z,35.95
2023-09-07T06:57:35.082Z,34.90
2023-09-07T07:00:06.416Z,34.83
2023-09-07T07:02:34.073Z,26.33
2023-09-07T07:05:01.490Z,33.47
2023-09-07T07:07:30.385Z,24.08
2023-09-07T07:09:57.436Z,26.02
2023-09-07T07:12:24.611Z,26.15
2023-09-07T07:14:51.505Z,22.10
2023-09-07T07:17:18.461Z,25.63
2023-09-07T07:19:45.413Z,27.25
2023-09-07T07:22:13.749Z,27.38
2023-09-07T07:24:41.510Z,24.85
2023-09-07T07:27:08.594Z,23.92
2023-09-07T07:29:36.501Z,23.33
2023-09-07T07:32:04.946Z,21.33
2023-09-07T07:34:32.739Z,22.52
2023-09-07T07:37:00.156Z,21.58
2023-09-07T07:39:27.219Z,19.25
2023-09-07T07:41:54.349Z,19.70
2023-09-07T07:44:21.280Z,20.73
2023-09-07T07:46:50.743Z,19.58
2023-09-07T07:49:18.030Z,19.83
2023-09-07T07:51:45.363Z,22.77
2023-09-07T07:54:12.425Z,19.88
2023-09-07T07:56:41.128Z,18.65
2023-09-07T07:59:08.716Z,22.40
2023-09-07T08:01:37.625Z,17.88
2023-09-07T08:04:05.335Z,21.33
2023-09-07T08:06:33.577Z,21.83
2023-09-07T08:09:00.733Z,23.63
2023-09-07T08:11:28.265Z,21.92
2023-09-07T08:13:55.810Z,20.45
2023-09-07T08:16:23.317Z,21.33
2023-09-07T08:18:51.640Z,23.75
2023-09-07T08:21:19.349Z,20.92
2023-09-07T08:23:46.592Z,17.02
2023-09-07T08:26:16.019Z,19.95
2023-09-07T08:28:47.497Z,20.08
2023-09-07T08:31:22.083Z,16.13
2023-09-07T08:33:52.053Z,20.35
2023-09-07T08:36:19.198Z,20.52
2023-09-07T08:38:46.112Z,18.58
2023-09-07T08:41:14.208Z,14.93
2023-09-07T08:43:47.305Z,16.20
2023-09-07T08:46:19.326Z,14.38
2023-09-07T08:48:47.924Z,17.13
2023-09-07T08:51:17.199Z,13.40
2023-09-07T08:53:47.600Z,11.70
2023-09-07T08:56:15.502Z,11.38
2023-09-07T08:58:45.967Z,19.23
2023-09-07T09:01:14.221Z,12.88
2023-09-07T09:03:43.046Z,15.27
2023-09-07T09:06:11.875Z,11.43
2023-09-07T09:08:55.478Z,14.80
2023-09-07T09:11:24.089Z,13.23
2023-09-07T09:13:53.304Z,15.27
2023-09-07T09:16:21.342Z,14.80
2023-09-07T09:18:57.095Z,14.65
2023-09-07T09:21:25.724Z,14.77
2023-09-07T09:23:57.748Z,14.32
2023-09-07T09:26:26.492Z,15.90
2023-09-07T09:28:57.482Z,15.77
2023-09-07T09:31:25.796Z,17.70
2023-09-07T09:33:53.461Z,18.77
2023-09-07T09:36:21.698Z,20.25
2023-09-07T09:38:54.833Z,21.50
2023-09-07T09:41:24.918Z,19.17
2023-09-07T09:43:52.915Z,15.63
2023-09-07T09:46:20.245Z,22.30
2023-09-07T09:48:48.509Z,24.25
2023-09-07T09:51:19.615Z,20.25
2023-09-07T09:53:46.932Z,19.10
2023-09-07T09:56:14.135Z,17.83
2023-09-07T09:58:41.597Z,19.27
2023-09-07T10:01:11.064Z,16.25
2023-09-07T10:03:48.964Z,15.15
2023-09-07T10:06:30.738Z,16.25
2023-09-07T10:09:09.236Z,19.80
2023-09-07T10:11:40.041Z,18.45
2023-09-07T10:14:08.576Z,20.67
2023-09-07T10:16:54.352Z,23.48
2023-09-07T10:19:26.477Z,16.02
2023-09-07T10:21:57.260Z,17.17
2023-09-07T10:24:29.222Z,16.58
2023-09-07T10:27:04.417Z,13.63
2023-09-07T10:32:10.104Z,13.02
2023-09-07T10:34:39.146Z,16.70
2023-09-07T10:37:08.699Z,11.85
2023-09-07T10:39:35.673Z,14.10
2023-09-07T10:42:02.731Z,15.27
2023-09-07T10:44:30.357Z,12.45
2023-09-07T10:47:01.617Z,14.68
2023-09-07T10:49:28.616Z,15.55
2023-09-07T10:51:55.626Z,13.43
2023-09-07T10:54:26.549Z,14.95
2023-09-07T10:56:54.874Z,15.32
2023-09-07T10:59:21.776Z,17.52
2023-09-07T11:01:49.779Z,17.67
2023-09-07T11:04:18.602Z,18.70
2023-09-07T11:06:46.128Z,15.48
2023-09-07T11:09:13.181Z,16.02
2023-09-07T11:11:40.429Z,14.43
2023-09-07T11:14:07.602Z,17.48
2023-09-07T11:16:35.669Z,19.65
2023-09-07T11:19:06.697Z,14.73
2023-09-07T11:21:36.826Z,13.02
2023-09-07T11:24:07.131Z,13.20
2023-09-07T11:26:44.658Z,9.52
2023-09-07T11:29:15.792Z,9.68
2023-09-07T11:31:43.831Z,8.50
2023-09-07T11:34:15.086Z,10.70
2023-09-07T11:36:43.326Z,8.02
2023-09-07T11:39:13.684Z,9.65
2023-09-07T11:41:45.485Z,9.98
2023-09-07T11:44:13.310Z,10.60
2023-09-07T11:46:41.262Z,8.95
2023-09-07T11:49:10.289Z,11.35
2023-09-07T11:51:38.219Z,10.27
2023-09-07T11:54:05.942Z,7.65
2023-09-07T11:56:33.021Z,6.38
2023-09-07T11:59:00.164Z,6.07
2023-09-07T12:01:28.527Z,6.90
2023-09-07T12:03:55.994Z,7.47
2023-09-07T12:06:24.532Z,10.20
2023-09-07T12:09:02.241Z,8.95
2023-09-07T12:11:29.273Z,7.40
2023-09-07T12:13:56.182Z,8.93
2023-09-07T12:16:23.477Z,10.77
2023-09-07T12:18:50.702Z,9.07
2023-09-07T12:21:17.670Z,9.65
2023-09-07T12:23:44.967Z,9.10
2023-09-07T12:26:12.800Z,8.05
2023-09-07T12:28:39.644Z,6.28
2023-09-07T12:31:06.640Z,9.35
2023-09-07T12:33:34.124Z,7.03
2023-09-07T12:36:01.757Z,4.47
2023-09-07T12:38:30.389Z,6.70
2023-09-07T12:40:57.540Z,6.03
2023-09-07T12:43:26.247Z,7.20
2023-09-07T12:45:54.220Z,7.78
2023-09-07T12:48:21.663Z,7.03
2023-09-07T12:50:48.727Z,8.00
2023-09-07T12:53:15.730Z,7.43
2023-09-07T12:55:42.765Z,7.40
2023-09-07T12:58:09.822Z,5.47
2023-09-07T13:00:36.798Z,9.48
2023-09-07T13:03:04.630Z,6.47
2023-09-07T13:05:31.807Z,5.88
2023-09-07T13:08:00.535Z,8.52
2023-09-07T13:10:27.522Z,9.15
2023-09-07T13:12:54.395Z,10.05
2023-09-07T13:15:21.390Z,6.75
2023-09-07T13:17:48.300Z,8.20
2023-09-07T13:20:15.246Z,8.57
2023-09-07T13:22:43.657Z,10.20
2023-09-07T13:25:10.867Z,10.80
2023-09-07T13:27:37.821Z,9.90
2023-09-07T13:30:06.936Z,10.93
2023-09-07T13:32:34.220Z,8.52
2023-09-07T13:35:01.598Z,10.45
2023-09-07T13:37:28.548Z,9.15
2023-09-07T13:39:55.679Z,7.07
2023-09-07T13:42:22.543Z,9.00
2023-09-07T13:44:50.886Z,6.97
2023-09-07T13:47:17.844Z,10.38
2023-09-07T13:49:44.918Z,9.25
2023-09-07T13:52:11.982Z,7.25
2023-09-07T13:54:38.889Z,5.57
2023-09-07T13:57:06.957Z,8.73
2023-09-07T13:59:35.669Z,7.13
2023-09-07T14:02:02.797Z,8.23
2023-09-07T14:04:30.146Z,7.40
2023-09-07T14:06:57.074Z,7.95
2023-09-07T14:09:27.166Z,9.73
2023-09-07T14:11:54.105Z,7.25
2023-09-07T14:14:22.069Z,10.63
2023-09-07T14:16:51.274Z,5.25
2023-09-07T14:19:18.225Z,8.07
2023-09-07T14:21:45.134Z,9.18
2023-09-07T14:24:12.015Z,7.07
2023-09-07T14:26:39.017Z,8.60
2023-09-07T14:29:06.193Z,9.05
2023-09-07T14:31:33.147Z,8.98
2023-09-07T14:34:00.017Z,7.38
2023-09-07T14:36:26.990Z,6.68
2023-09-07T14:38:53.901Z,6.53
2023-09-07T14:41:21.073Z,5.70
2023-09-07T14:43:48.808Z,10.25
2023-09-07T14:46:16.833Z,5.32
2023-09-07T14:48:45.399Z,5.78
2023-09-07T14:51:12.377Z,10.15
2023-09-07T14:53:39.455Z,8.45
2023-09-07T14:56:06.548Z,9.10
2023-09-07T14:58:34.156Z,6.38
2023-09-07T15:01:01.290Z,7.45
2023-09-07T15:03:28.241Z,11.77
2023-09-07T15:05:56.236Z,5.60
2023-09-07T15:08:23.490Z,9.98
2023-09-07T15:10:51.403Z,6.20
2023-09-07T15:13:18.630Z,4.28
2023-09-07T15:15:45.678Z,7.93
2023-09-07T15:18:12.737Z,5.07
2023-09-07T15:20:39.890Z,6.20
2023-09-07T15:23:06.789Z,6.60
2023-09-07T15:25:33.906Z,7.15
2023-09-07T15:28:01.113Z,7.97
2023-09-07T15:30:28.072Z,7.10
2023-09-07T15:32:55.128Z,11.40
2023-09-07T15:35:22.435Z,4.97
2023-09-07T15:37:49.300Z,7.22
2023-09-07T15:40:16.385Z,11.20
2023-09-07T15:42:43.871Z,5.35
2023-09-07T15:45:11.140Z,7.13
2023-09-07T15:47:38.207Z,6.07
2023-09-07T15:50:05.865Z,8.27
2023-09-07T15:52:33.626Z,13.27
2023-09-07T15:55:00.679Z,69.25
2023-09-07T15:57:27.829Z,10.50
2023-09-07T15:59:57.328Z,8.23
2023-09-07T16:02:24.480Z,8.88
2023-09-07T16:04:51.992Z,9.93
2023-09-07T16:07:18.867Z,7.85
2023-09-07T16:09:45.927Z,5.95
2023-09-07T16:12:13.625Z,7.40
2023-09-07T16:14:40.589Z,7.75
2023-09-07T16:17:09.708Z,18.75
2023-09-07T16:19:36.882Z,22.88
2023-09-07T16:22:07.407Z,20.45
2023-09-07T16:24:34.653Z,9.25
2023-09-07T16:27:01.778Z,9.48
2023-09-07T16:29:28.767Z,12.18
2023-09-07T16:31:55.694Z,10.27
2023-09-07T16:34:23.780Z,9.05
2023-09-07T16:36:50.654Z,6.55
2023-09-07T16:39:17.660Z,10.50
2023-09-07T16:41:44.647Z,10.25
2023-09-07T16:44:11.916Z,5.47
2023-09-07T16:46:40.272Z,9.43
2023-09-07T16:49:07.770Z,5.95
2023-09-07T16:51:34.807Z,6.45
2023-09-07T16:54:01.745Z,9.98
2023-09-07T16:56:29.947Z,6.50
2023-09-07T17:01:27.271Z,11.32
2023-09-07T17:03:54.608Z,8.02
2023-09-07T17:06:21.633Z,7.80
2023-09-07T17:08:48.630Z,6.07
2023-09-07T17:11:15.575Z,6.68
2023-09-07T17:13:51.901Z,9.88
2023-09-07T17:16:27.413Z,10.30
2023-09-07T17:18:54.276Z,7.40
2023-09-07T17:21:21.220Z,8.23
2023-09-07T17:23:48.144Z,10.18
2023-09-07T17:26:15.222Z,7.68
2023-09-07T17:28:42.192Z,7.25
2023-09-07T17:31:16.538Z,6.97
2023-09-07T17:33:43.935Z,7.30
2023-09-07T17:36:21.706Z,5.05
2023-09-07T17:38:55.667Z,7.82
2023-09-07T17:41:30.593Z,5.82
2023-09-07T17:46:25.998Z,9.32
2023-09-07T17:48:53.580Z,7.18
2023-09-07T17:51:20.576Z,7.20
2023-09-07T17:53:47.645Z,6.82
2023-09-07T17:56:14.973Z,6.70
2023-09-07T17:58:43.845Z,7.85
2023-09-07T18:01:13.176Z,6.35
2023-09-07T18:03:40.604Z,5.93
2023-09-07T18:06:09.081Z,9.75
2023-09-07T18:08:37.290Z,8.20
2023-09-07T18:11:06.113Z,7.93
2023-09-07T18:13:33.353Z,7.07
2023-09-07T18:16:00.769Z,6.72
2023-09-07T18:18:28.127Z,8.18
2023-09-07T18:20:55.101Z,9.10
2023-09-07T18:23:25.198Z,6.70
2023-09-07T18:25:53.019Z,9.50
2023-09-07T18:28:19.932Z,7.10
2023-09-07T18:30:47.176Z,7.65
2023-09-07T18:33:14.406Z,12.43
2023-09-07T18:35:41.416Z,9.55
2023-09-07T18:38:08.329Z,10.52
2023-09-07T18:40:35.620Z,7.97
2023-09-07T18:43:02.537Z,7.90
2023-09-07T18:45:29.475Z,8.65
2023-09-07T18:47:56.493Z,8.70
2023-09-07T18:50:25.007Z,10.30
2023-09-07T18:52:52.341Z,10.68
2023-09-07T18:55:19.924Z,8.60
2023-09-07T18:57:48.132Z,7.55
2023-09-07T19:00:16.690Z,7.05
2023-09-07T19:02:44.486Z,8.40
2023-09-07T19:05:11.833Z,10.32
2023-09-07T19:07:39.899Z,10.30
2023-09-07T19:10:08.183Z,10.13
2023-09-07T19:12:36.379Z,11.45
2023-09-07T19:15:04.304Z,9.20
2023-09-07T19:17:31.479Z,10.27
2023-09-07T19:19:58.922Z,11.63
2023-09-07T19:22:25.754Z,13.40
2023-09-07T19:24:53.822Z,15.18
2023-09-07T19:27:23.914Z,12.15
2023-09-07T19:29:52.129Z,13.02
2023-09-07T19:32:20.591Z,13.05
2023-09-07T19:34:47.907Z,12.52
2023-09-07T19:37:14.764Z,11.15
2023-09-07T19:39:41.971Z,11.48
2023-09-07T19:42:09.003Z,7.75
2023-09-07T19:44:36.336Z,10.20
2023-09-07T19:47:04.075Z,9.85
2023-09-07T19:49:31.139Z,12.93
2023-09-07T19:51:58.142Z,8.80
2023-09-07T19:54:25.119Z,14.00
2023-09-07T19:56:52.297Z,10.73
2023-09-07T19:59:19.238Z,9.50
2023-09-07T20:02:00.638Z,13.30
2023-09-07T20:04:28.307Z,12.70
2023-09-07T20:06:56.212Z,13.52
2023-09-07T20:09:25.825Z,15.52
2023-09-07T20:11:54.119Z,12.00
2023-09-07T20:14:21.491Z,12.52
2023-09-07T20:16:49.349Z,9.65
2023-09-07T20:19:16.616Z,11.88
2023-09-07T20:21:43.754Z,12.45
2023-09-07T20:24:11.062Z,15.85
2023-09-07T20:26:38.089Z,10.55
2023-09-07T20:29:06.428Z,10.23
2023-09-07T20:31:33.696Z,13.05
2023-09-07T20:34:00.747Z,11.60
2023-09-07T20:36:27.845Z,11.93
2023-09-07T20:38:56.252Z,13.02
2023-09-07T20:41:23.374Z,18.65
2023-09-07T20:43:50.342Z,13.15
2023-09-07T20:46:17.610Z,13.13
2023-09-07T20:48:44.647Z,11.18
2023-09-07T20:51:11.775Z,12.00
2023-09-07T20:53:38.806Z,12.38
2023-09-07T20:56:05.725Z,12.13
2023-09-07T20:58:33.363Z,12.85
2023-09-07T21:01:04.181Z,15.27
2023-09-07T21:03:31.968Z,12.38
2023-09-07T21:05:59.117Z,13.80
2023-09-07T21:08:26.223Z,15.55
2023-09-07T21:10:53.414Z,11.95
2023-09-07T21:13:20.850Z,12.73
2023-09-07T21:15:47.801Z,12.52
2023-09-07T21:18:14.961Z,16.85
2023-09-07T21:20:42.270Z,13.73
2023-09-07T21:23:10.384Z,14.35
2023-09-07T21:25:37.326Z,15.50
2023-09-07T21:28:04.517Z,15.15
2023-09-07T21:30:31.722Z,14.15
2023-09-07T21:32:59.092Z,13.70
2023-09-07T21:35:26.029Z,16.33
2023-09-07T21:37:53.077Z,16.98
2023-09-07T21:40:19.988Z,13.40
2023-09-07T21:42:47.039Z,14.02
2023-09-07T21:45:14.021Z,15.73
2023-09-07T21:47:41.331Z,14.65
2023-09-07T21:50:08.613Z,14.85
2023-09-07T21:52:35.669Z,16.10
2023-09-07T21:55:02.741Z,17.13
2023-09-07T21:57:29.705Z,17.33
2023-09-07T21:59:56.817Z,13.40
2023-09-07T22:02:24.688Z,14.30
2023-09-07T22:04:52.498Z,14.90
2023-09-07T22:07:19.686Z,12.05
2023-09-07T22:09:46.638Z,19.92
2023-09-07T22:12:13.618Z,12.20
2023-09-07T22:14:40.632Z,12.38
2023-09-07T22:17:08.220Z,16.88
2023-09-07T22:19:35.090Z,18.83
2023-09-07T22:22:02.193Z,15.90
2023-09-07T22:24:29.175Z,17.40
2023-09-07T22:26:58.341Z,15.27
2023-09-07T22:29:25.952Z,14.77
2023-09-07T22:31:52.984Z,14.43
2023-09-07T22:34:20.035Z,17.73
2023-09-07T22:36:47.102Z,14.93
2023-09-07T22:39:13.979Z,15.43
2023-09-07T22:41:41.245Z,18.05
2023-09-07T22:44:08.660Z,18.73
2023-09-07T22:46:35.738Z,18.98
2023-09-07T22:49:03.454Z,22.05
2023-09-07T22:51:30.666Z,20.83
2023-09-07T22:53:57.892Z,19.67
2023-09-07T22:56:25.552Z,19.67
2023-09-07T22:58:52.836Z,20.27
2023-09-07T23:01:20.057Z,24.15
2023-09-07T23:03:47.307Z,18.15
2023-09-07T23:06:14.612Z,20.48
2023-09-07T23:08:41.677Z,18.00
2023-09-07T23:11:08.763Z,18.73
2023-09-07T23:13:36.447Z,20.45
2023-09-07T23:16:04.162Z,21.13
2023-09-07T23:18:32.687Z,20.90
2023-09-07T23:21:00.174Z,18.98
2023-09-07T23:23:27.304Z,22.92
2023-09-07T23:25:54.968Z,21.83
2023-09-07T23:28:24.682Z,23.25
2023-09-07T23:30:55.100Z,23.98
2023-09-07T23:33:22.797Z,22.08
2023-09-07T23:35:50.114Z,22.33
2023-09-07T23:38:17.117Z,23.55
2023-09-07T23:40:44.047Z,26.55
2023-09-07T23:43:11.272Z,21.42
2023-09-07T23:45:38.432Z,25.23
2023-09-07T23:48:05.863Z,21.70
2023-09-07T23:50:33.367Z,22.50
2023-09-07T23:53:00.407Z,24.50
2023-09-07T23:55:27.359Z,24.38
2023-09-07T23:57:54.531Z,29.10
